createdAt,value
2022-08-05T00:00:50.772Z,8.98
2022-08-05T00:03:52.523Z,12.57
2022-08-05T00:06:54.839Z,12.68
2022-08-05T00:09:57.532Z,11.10
2022-08-05T00:13:00.272Z,10.25
2022-08-05T00:16:02.176Z,10.25
2022-08-05T00:19:04.983Z,11.90
2022-08-05T00:22:07.630Z,8.77
2022-08-05T00:25:14.349Z,12.10
2022-08-05T00:28:21.185Z,10.50
2022-08-05T00:31:54.035Z,14.07
2022-08-05T00:35:06.695Z,9.97
2022-08-05T00:38:09.534Z,9.75
2022-08-05T00:41:11.657Z,10.23
2022-08-05T00:44:13.851Z,9.45
2022-08-05T00:47:16.468Z,10.98
2022-08-05T00:50:18.786Z,11.63
2022-08-05T00:53:45.031Z,11.80
2022-08-05T00:56:51.298Z,12.10
2022-08-05T00:59:53.748Z,11.10
2022-08-05T01:02:56.724Z,11.63
2022-08-05T01:05:58.777Z,12.00
2022-08-05T01:09:00.589Z,11.48
2022-08-05T01:12:18.703Z,13.95
2022-08-05T01:15:36.502Z,11.90
2022-08-05T01:18:43.118Z,11.35
2022-08-05T01:22:07.029Z,12.33
2022-08-05T01:25:43.612Z,10.00
2022-08-05T01:29:08.900Z,12.80
2022-08-05T01:32:18.546Z,12.88
2022-08-05T01:35:50.678Z,11.73
2022-08-05T01:38:49.966Z,11.37
2022-08-05T01:41:54.495Z,12.45
2022-08-05T01:44:59.919Z,11.52
2022-08-05T01:48:10.462Z,10.40
2022-08-05T01:51:14.502Z,11.82
2022-08-05T01:54:20.209Z,11.47
2022-08-05T01:58:12.557Z,10.10
2022-08-05T02:00:56.740Z,11.40
2022-08-05T02:04:01.547Z,12.88
2022-08-05T02:07:03.576Z,9.25
2022-08-05T02:10:08.307Z,12.47
2022-08-05T02:13:17.269Z,8.60
2022-08-05T02:16:44.161Z,11.18
2022-08-05T02:19:54.783Z,8.48
2022-08-05T02:23:03.065Z,9.65
2022-08-05T02:26:09.532Z,10.20
2022-08-05T02:29:21.614Z,10.02
2022-08-05T02:32:31.489Z,11.93
2022-08-05T02:35:38.543Z,9.85
2022-08-05T02:38:56.031Z,9.00
2022-08-05T02:42:01.656Z,11.13
2022-08-05T02:45:03.831Z,10.52
2022-08-05T02:48:12.377Z,10.68
2022-08-05T02:51:17.164Z,8.82
2022-08-05T02:54:35.793Z,10.35
2022-08-05T02:58:10.667Z,10.33
2022-08-05T03:01:02.809Z,11.50
2022-08-05T03:04:13.970Z,9.30
2022-08-05T03:07:17.621Z,8.55
2022-08-05T03:10:38.074Z,9.63
2022-08-05T03:13:52.095Z,10.57
2022-08-05T03:17:02.692Z,9.65
2022-08-05T03:20:10.152Z,8.63
2022-08-05T03:23:12.866Z,9.27
2022-08-05T03:26:31.755Z,10.18
2022-08-05T03:29:45.796Z,10.93
2022-08-05T03:32:56.796Z,9.88
2022-08-05T03:35:58.998Z,9.27
2022-08-05T03:39:07.805Z,11.40
2022-08-05T03:42:09.632Z,10.68
2022-08-05T03:45:22.087Z,8.90
2022-08-05T03:48:25.303Z,11.38
2022-08-05T03:52:37.397Z,9.85
2022-08-05T03:56:05.120Z,8.32
2022-08-05T03:58:36.747Z,10.20
2022-08-05T04:01:42.471Z,11.00
2022-08-05T04:04:47.635Z,11.77
2022-08-05T04:07:57.543Z,11.90
2022-08-05T04:11:03.238Z,12.93
2022-08-05T04:14:05.291Z,9.55
2022-08-05T04:17:09.281Z,9.27
2022-08-05T04:20:21.113Z,10.02
2022-08-05T04:23:57.109Z,9.95
2022-08-05T04:26:48.789Z,8.88
2022-08-05T04:29:50.446Z,10.50
2022-08-05T04:32:52.643Z,12.20
2022-08-05T04:36:16.152Z,10.85
2022-08-05T04:39:16.061Z,12.85
2022-08-05T04:42:17.787Z,9.25
2022-08-05T04:45:47.729Z,10.95
2022-08-05T04:48:48.749Z,10.13
2022-08-05T04:51:58.262Z,10.13
2022-08-05T04:55:14.687Z,10.18
2022-08-05T04:58:20.193Z,9.93
2022-08-05T05:02:08.030Z,10.18
2022-08-05T05:04:47.857Z,11.43
2022-08-05T05:07:52.895Z,10.73
2022-08-05T05:10:58.343Z,9.63
2022-08-05T05:14:00.818Z,10.43
2022-08-05T05:17:07.576Z,10.60
2022-08-05T05:20:13.106Z,10.57
2022-08-05T05:23:19.515Z,9.45
2022-08-05T05:26:28.451Z,10.68
2022-08-05T05:30:03.628Z,10.60
2022-08-05T05:32:56.364Z,9.63
2022-08-05T05:35:58.116Z,8.70
2022-08-05T05:39:03.764Z,10.15
2022-08-05T05:42:06.133Z,9.63
2022-08-05T05:45:09.234Z,7.68
2022-08-05T05:48:10.858Z,9.38
2022-08-05T05:51:22.232Z,9.63
2022-08-05T05:54:49.735Z,9.98
2022-08-05T05:57:52.767Z,8.48
2022-08-05T06:00:54.747Z,8.73
2022-08-05T06:04:01.700Z,8.23
2022-08-05T06:07:05.186Z,9.47
2022-08-05T06:10:10.513Z,9.40
2022-08-05T06:13:12.692Z,8.77
2022-08-05T06:16:28.596Z,9.18
2022-08-05T06:19:35.573Z,9.85
2022-08-05T06:22:37.578Z,7.80
2022-08-05T06:26:12.788Z,10.52
2022-08-05T06:29:23.658Z,10.25
2022-08-05T06:32:29.229Z,9.50
2022-08-05T06:36:07.702Z,10.32
2022-08-05T06:38:54.723Z,8.63
2022-08-05T06:42:03.859Z,7.75
2022-08-05T06:45:08.297Z,10.60
2022-08-05T06:48:36.497Z,8.35
2022-08-05T06:51:32.786Z,9.93
2022-08-05T06:54:34.711Z,9.00
2022-08-05T06:58:03.890Z,9.15
2022-08-05T07:01:01.123Z,9.27
2022-08-05T07:04:03.292Z,10.48
2022-08-05T07:07:08.008Z,9.27
2022-08-05T07:10:10.406Z,9.60
2022-08-05T07:13:57.184Z,9.93
2022-08-05T07:18:00.304Z,9.23
2022-08-05T07:20:38.914Z,9.02
2022-08-05T07:23:49.771Z,9.23
2022-08-05T07:26:53.872Z,11.27
2022-08-05T07:30:24.260Z,12.30
2022-08-05T07:33:21.483Z,10.60
2022-08-05T07:36:39.056Z,8.98
2022-08-05T07:40:04.290Z,11.77
2022-08-05T07:43:07.368Z,10.17
2022-08-05T07:46:24.390Z,9.95
2022-08-05T07:49:27.673Z,11.10
2022-08-05T07:52:29.618Z,11.80
2022-08-05T07:56:04.947Z,10.40
2022-08-05T07:58:57.766Z,11.40
2022-08-05T08:02:03.037Z,14.00
2022-08-05T08:05:05.529Z,10.50
2022-08-05T08:08:07.157Z,10.82
2022-08-05T08:11:15.975Z,12.80
2022-08-05T08:14:18.403Z,13.10
2022-08-05T08:17:21.713Z,9.95
2022-08-05T08:20:44.442Z,11.38
2022-08-05T08:24:01.571Z,9.77
2022-08-05T08:27:07.324Z,11.15
2022-08-05T08:30:28.465Z,10.60
2022-08-05T08:33:37.471Z,9.80
2022-08-05T08:36:49.946Z,10.82
2022-08-05T08:39:54.430Z,8.85
2022-08-05T08:42:56.618Z,10.48
2022-08-05T08:46:01.047Z,12.10
2022-08-05T08:50:23.236Z,8.75
2022-08-05T08:52:30.459Z,9.27
2022-08-05T08:56:03.653Z,8.68
2022-08-05T08:58:59.299Z,8.93
2022-08-05T09:02:18.465Z,10.57
2022-08-05T09:05:38.309Z,8.95
2022-08-05T09:08:40.878Z,8.93
2022-08-05T09:11:53.194Z,9.55
2022-08-05T09:15:05.772Z,8.70
2022-08-05T09:18:09.026Z,7.63
2022-08-05T09:21:11.488Z,7.32
2022-08-05T09:24:13.685Z,8.82
2022-08-05T09:28:04.170Z,7.38
2022-08-05T09:31:22.707Z,8.75
2022-08-05T09:34:26.464Z,9.97
2022-08-05T09:38:16.648Z,7.55
2022-08-05T09:40:53.593Z,7.05
2022-08-05T09:43:55.656Z,7.70
2022-08-05T09:47:12.819Z,7.13
2022-08-05T09:50:38.012Z,7.67
2022-08-05T09:53:55.207Z,8.27
2022-08-05T09:57:01.479Z,6.75
2022-08-05T10:00:14.077Z,8.93
2022-08-05T10:03:15.722Z,6.45
2022-08-05T10:06:19.955Z,6.47
2022-08-05T10:09:27.693Z,8.05
2022-08-05T10:12:40.951Z,6.15
2022-08-05T10:15:51.958Z,8.18
2022-08-05T10:20:03.192Z,6.13
2022-08-05T10:22:51.082Z,5.57
2022-08-05T10:25:54.977Z,6.43
2022-08-05T10:28:56.707Z,8.43
2022-08-05T10:32:54.350Z,8.07
2022-08-05T10:35:20.493Z,5.70
2022-08-05T10:38:36.996Z,6.47
2022-08-05T10:42:00.895Z,10.27
2022-08-05T10:45:21.007Z,6.85
2022-08-05T10:48:52.572Z,8.25
2022-08-05T10:52:03.282Z,6.20
2022-08-05T10:55:10.254Z,8.60
2022-08-05T10:58:17.950Z,6.53
2022-08-05T11:01:55.471Z,6.93
2022-08-05T11:04:55.247Z,6.20
2022-08-05T11:08:02.439Z,6.18
2022-08-05T11:11:52.019Z,7.73
2022-08-05T11:15:19.237Z,8.30
2022-08-05T11:18:29.964Z,6.43
2022-08-05T11:21:48.926Z,7.78
2022-08-05T11:26:05.450Z,7.35
2022-08-05T11:28:53.637Z,6.07
2022-08-05T11:32:26.570Z,8.65
2022-08-05T11:36:08.348Z,6.65
2022-08-05T11:39:12.168Z,8.43
2022-08-05T11:42:18.557Z,7.38
2022-08-05T11:46:14.497Z,6.20
2022-08-05T11:48:42.395Z,6.13
2022-08-05T11:51:49.772Z,7.38
2022-08-05T11:54:55.026Z,7.32
2022-08-05T11:58:09.649Z,6.93
2022-08-05T12:01:19.308Z,6.67
2022-08-05T12:04:21.805Z,8.25
2022-08-05T12:08:03.797Z,6.65
2022-08-05T12:10:48.878Z,7.32
2022-08-05T12:14:04.154Z,9.10
2022-08-05T12:18:03.651Z,7.70
2022-08-05T12:20:38.525Z,6.95
2022-08-05T12:23:43.171Z,16.08
2022-08-05T12:26:54.037Z,6.80
2022-08-05T12:30:06.198Z,6.85
2022-08-05T12:33:27.344Z,7.37
2022-08-05T12:36:30.762Z,7.78
2022-08-05T12:39:34.451Z,6.00
2022-08-05T12:42:40.122Z,7.45
2022-08-05T12:45:55.905Z,10.48
2022-08-05T12:49:18.902Z,6.80
2022-08-05T12:52:25.382Z,7.65
2022-08-05T12:55:32.487Z,7.40
2022-08-05T12:58:49.830Z,7.30
2022-08-05T13:02:07.113Z,5.95
2022-08-05T13:05:12.601Z,6.27
2022-08-05T13:08:18.384Z,7.28
2022-08-05T13:11:59.760Z,6.00
2022-08-05T13:14:46.273Z,6.65
2022-08-05T13:18:01.166Z,7.60
2022-08-05T13:21:02.939Z,6.67
2022-08-05T13:24:08.967Z,6.85
2022-08-05T13:27:11.039Z,8.25
2022-08-05T13:30:34.451Z,7.57
2022-08-05T13:34:23.086Z,6.15
2022-08-05T13:37:00.264Z,6.53
2022-08-05T13:40:16.065Z,5.93
2022-08-05T13:43:24.257Z,7.47
2022-08-05T13:47:04.986Z,6.72
2022-08-05T13:50:11.261Z,7.68
2022-08-05T13:53:15.798Z,8.80
2022-08-05T13:56:18.473Z,7.15
2022-08-05T13:59:24.235Z,8.68
2022-08-05T14:02:29.935Z,9.55
2022-08-05T14:06:24.478Z,7.40
2022-08-05T14:08:54.702Z,7.73
2022-08-05T14:12:04.298Z,7.95
2022-08-05T14:16:08.733Z,7.88
2022-08-05T14:18:39.653Z,7.90
2022-08-05T14:22:10.351Z,8.25
2022-08-05T14:25:06.310Z,7.67
2022-08-05T14:28:27.027Z,6.55
2022-08-05T14:32:02.296Z,6.80
2022-08-05T14:34:51.583Z,8.60
2022-08-05T14:37:55.450Z,6.97
2022-08-05T14:40:57.470Z,6.47
2022-08-05T14:44:09.799Z,7.82
2022-08-05T14:47:58.325Z,7.22
2022-08-05T14:50:43.529Z,7.60
2022-08-05T14:54:26.027Z,6.53
2022-08-05T14:57:09.593Z,5.93
2022-08-05T15:00:15.700Z,9.40
2022-08-05T15:03:21.600Z,7.75
2022-08-05T15:06:28.005Z,7.18
2022-08-05T15:09:52.169Z,7.97
2022-08-05T15:13:00.989Z,7.70
2022-08-05T15:16:05.665Z,6.82
2022-08-05T15:19:08.594Z,6.47
2022-08-05T15:22:27.162Z,6.07
2022-08-05T15:25:51.915Z,8.88
2022-08-05T15:28:52.090Z,6.80
2022-08-05T15:31:53.868Z,7.68
2022-08-05T15:34:55.956Z,9.65
2022-08-05T15:38:32.636Z,7.15
2022-08-05T15:41:24.403Z,8.18
2022-08-05T15:44:30.349Z,8.10
2022-08-05T15:47:32.579Z,7.00
2022-08-05T15:50:37.646Z,8.48
2022-08-05T15:53:51.231Z,9.43
2022-08-05T15:56:53.344Z,8.52
2022-08-05T15:59:57.792Z,7.37
2022-08-05T16:03:00.084Z,6.60
2022-08-05T16:06:02.361Z,7.75
2022-08-05T16:09:04.256Z,5.97
2022-08-05T16:12:06.531Z,7.70
2022-08-05T16:15:09.497Z,6.77
2022-08-05T16:18:12.320Z,7.20
2022-08-05T16:21:16.099Z,6.03
2022-08-05T16:24:39.897Z,8.80
2022-08-05T16:27:47.393Z,7.10
2022-08-05T16:31:03.397Z,7.27
2022-08-05T16:34:05.696Z,5.63
2022-08-05T16:38:02.248Z,8.48
2022-08-05T16:40:33.141Z,6.32
2022-08-05T16:43:35.242Z,8.80
2022-08-05T16:46:37.483Z,9.30
2022-08-05T16:49:43.072Z,9.73
2022-08-05T16:52:46.066Z,8.88
2022-08-05T16:55:47.914Z,8.73
2022-08-05T16:58:49.991Z,6.53
2022-08-05T17:01:53.602Z,7.23
2022-08-05T17:04:57.376Z,6.65
2022-08-05T17:07:59.034Z,6.97
2022-08-05T17:11:01.374Z,7.13
2022-08-05T17:14:06.285Z,7.80
2022-08-05T17:17:14.214Z,7.53
2022-08-05T17:20:16.632Z,7.25
2022-08-05T17:24:05.534Z,6.45
2022-08-05T17:26:40.869Z,7.07
2022-08-05T17:29:42.700Z,6.68
2022-08-05T17:32:44.496Z,6.20
2022-08-05T17:36:07.925Z,5.78
2022-08-05T17:39:23.793Z,7.03
2022-08-05T17:42:31.986Z,7.10
2022-08-05T17:45:38.665Z,7.72
2022-08-05T17:48:40.548Z,6.50
2022-08-05T17:51:46.873Z,5.80
2022-08-05T17:54:52.337Z,8.38
2022-08-05T17:57:54.254Z,6.72
2022-08-05T18:00:57.044Z,6.78
2022-08-05T18:04:04.571Z,6.63
2022-08-05T18:07:07.797Z,7.75
2022-08-05T18:10:21.430Z,7.38
2022-08-05T18:13:23.256Z,6.10
2022-08-05T18:16:27.441Z,6.88
2022-08-05T18:19:29.947Z,10.40
2022-08-05T18:22:46.018Z,7.68
2022-08-05T18:25:57.373Z,7.20
2022-08-05T18:29:00.340Z,7.07
2022-08-05T18:32:02.974Z,8.18
2022-08-05T18:35:05.253Z,7.27
2022-08-05T18:38:07.723Z,7.68
2022-08-05T18:41:57.051Z,9.05
2022-08-05T18:44:35.170Z,9.10
2022-08-05T18:47:56.688Z,8.60
2022-08-05T18:52:05.714Z,8.63
2022-08-05T18:54:42.750Z,9.38
2022-08-05T18:57:52.574Z,8.98
2022-08-05T19:00:58.525Z,8.07
2022-08-05T19:04:06.019Z,10.40
2022-08-05T19:07:14.008Z,12.10
2022-08-05T19:10:17.518Z,10.40
2022-08-05T19:13:19.767Z,8.63
2022-08-05T19:16:25.067Z,12.13
2022-08-05T19:19:30.867Z,9.43
2022-08-05T19:22:32.789Z,7.70
2022-08-05T19:25:42.011Z,7.07
2022-08-05T19:28:45.478Z,6.55
2022-08-05T19:31:50.886Z,8.27
2022-08-05T19:34:54.924Z,6.25
2022-08-05T19:38:06.575Z,7.10
2022-08-05T19:41:10.386Z,7.40
2022-08-05T19:44:13.250Z,7.57
2022-08-05T19:47:16.278Z,7.95
2022-08-05T19:50:19.967Z,7.35
2022-08-05T19:54:04.563Z,7.10
2022-08-05T19:56:44.228Z,10.43
2022-08-05T19:59:55.411Z,6.75
2022-08-05T20:03:13.247Z,7.75
2022-08-05T20:06:28.993Z,8.90
2022-08-05T20:09:53.999Z,8.73
2022-08-05T20:12:59.917Z,6.70
2022-08-05T20:16:26.398Z,6.75
2022-08-05T20:19:36.018Z,9.85
2022-08-05T20:22:38.209Z,7.00
2022-08-05T20:25:43.212Z,6.60
2022-08-05T20:28:50.522Z,6.40
2022-08-05T20:31:57.673Z,6.38
2022-08-05T20:34:59.804Z,6.65
2022-08-05T20:38:07.946Z,8.80
2022-08-05T20:41:10.137Z,7.97
2022-08-05T20:44:19.191Z,5.97
2022-08-05T20:47:32.745Z,6.78
2022-08-05T20:50:36.941Z,7.40
2022-08-05T20:53:41.337Z,7.45
2022-08-05T20:56:42.975Z,7.37
2022-08-05T20:59:46.305Z,6.85
2022-08-05T21:03:08.132Z,9.82
2022-08-05T21:06:27.489Z,8.02
2022-08-05T21:09:30.265Z,9.13
2022-08-05T21:12:36.089Z,7.17
2022-08-05T21:15:37.675Z,9.48
2022-08-05T21:18:39.368Z,8.63
2022-08-05T21:21:51.005Z,10.32
2022-08-05T21:24:54.403Z,8.82
2022-08-05T21:27:56.523Z,7.83
2022-08-05T21:30:58.975Z,8.60
2022-08-05T21:34:00.711Z,9.63
2022-08-05T21:37:04.787Z,9.25
2022-08-05T21:40:07.252Z,8.90
2022-08-05T21:43:24.227Z,12.40
2022-08-05T21:46:26.652Z,14.23
2022-08-05T21:49:48.342Z,11.20
2022-08-05T21:52:52.289Z,11.63
2022-08-05T21:56:05.809Z,10.52
2022-08-05T21:59:24.105Z,10.73
2022-08-05T22:02:27.981Z,15.63
2022-08-05T22:05:29.611Z,10.20
2022-08-05T22:08:51.835Z,13.70
2022-08-05T22:11:54.658Z,14.07
2022-08-05T22:14:58.760Z,10.70
2022-08-05T22:18:01.693Z,13.57
2022-08-05T22:21:04.190Z,12.10
2022-08-05T22:24:39.564Z,9.77
2022-08-05T22:28:08.497Z,12.68
2022-08-05T22:31:06.087Z,11.10
2022-08-05T22:34:08.008Z,8.80
2022-08-05T22:37:10.023Z,10.18
2022-08-05T22:40:16.813Z,10.35
2022-08-05T22:43:37.295Z,8.73
2022-08-05T22:46:40.979Z,8.40
2022-08-05T22:50:21.445Z,9.23
2022-08-05T22:53:09.833Z,9.45
2022-08-05T22:56:11.758Z,8.68
2022-08-05T22:59:46.537Z,7.93
2022-08-05T23:02:40.110Z,8.00
2022-08-05T23:05:48.450Z,8.65
2022-08-05T23:08:52.313Z,10.05
2022-08-05T23:11:54.042Z,9.55
2022-08-05T23:14:55.689Z,9.10
2022-08-05T23:18:00.670Z,9.97
2022-08-05T23:21:03.576Z,9.50
2022-08-05T23:24:11.305Z,8.35
2022-08-05T23:27:13.459Z,9.98
2022-08-05T23:30:15.133Z,8.85
2022-08-05T23:33:25.589Z,9.40
2022-08-05T23:36:28.379Z,9.27
2022-08-05T23:39:53.568Z,8.75
2022-08-05T23:42:55.711Z,10.40
2022-08-05T23:45:57.691Z,10.43
2022-08-05T23:49:03.788Z,9.33
2022-08-05T23:52:30.557Z,12.80
2022-08-05T23:55:33.143Z,11.40
2022-08-05T23:58:34.775Z,9.52
